TimeCDT,TemperatureF,Dew PointF,Humidity,Sea Level PressureIn,VisibilityMPH,Wind Direction,Wind SpeedMPH,Gust SpeedMPH,PrecipitationIn,Events,Conditions,WindDirDegrees,DateUTC
12:12 AM,59.9,50.9,72,29.90,10.0,SE,12.7,18.4,N/A,,Clear,140,2013-09-23 05:12:00
12:31 AM,59.4,50.5,73,29.90,10.0,SSE,12.7,19.6,N/A,,Clear,150,2013-09-23 05:31:00
12:52 AM,59.2,50.0,72,29.91,10.0,SSE,9.2,17.3,N/A,,Clear,150,2013-09-23 05:52:00
1:12 AM,58.5,49.6,72,29.91,10.0,SSE,11.5,16.1,N/A,,Clear,150,2013-09-23 06:12:00
1:31 AM,58.1,49.3,72,29.92,10.0,SSE,6.9,-,N/A,,Clear,160,2013-09-23 06:31:00
1:52 AM,57.7,49.1,73,29.93,10.0,SSE,8.1,-,N/A,,Clear,150,2013-09-23 06:52:00
2:12 AM,57.6,48.6,72,29.93,10.0,SSE,9.2,-,N/A,,Clear,160,2013-09-23 07:12:00
2:32 AM,56.8,48.2,73,29.93,10.0,SSE,6.9,-,N/A,,Clear,150,2013-09-23 07:32:00
2:52 AM,57.0,47.8,71,29.93,10.0,SSE,6.9,-,N/A,,Clear,150,2013-09-23 07:52:00
3:12 AM,56.8,47.7,71,29.93,10.0,SSE,6.9,-,N/A,,Clear,150,2013-09-23 08:12:00
3:32 AM,56.3,47.5,72,29.93,10.0,SSE,6.9,-,N/A,,Clear,150,2013-09-23 08:32:00
3:52 AM,55.9,47.3,73,29.93,10.0,SSE,8.1,-,N/A,,Clear,150,2013-09-23 08:52:00
4:12 AM,55.9,47.1,72,29.93,10.0,SSE,10.4,17.3,N/A,,Clear,150,2013-09-23 09:12:00
4:32 AM,55.9,46.9,72,29.93,10.0,SSE,11.5,-,N/A,,Clear,150,2013-09-23 09:32:00
4:51 AM,56.5,46.9,70,29.92,10.0,SSE,9.2,-,N/A,,Clear,150,2013-09-23 09:51:00
5:12 AM,55.9,47.3,73,29.92,10.0,SSE,9.2,-,N/A,,Clear,150,2013-09-23 10:12:00
5:31 AM,55.6,47.3,74,29.93,10.0,SSE,10.4,-,N/A,,Clear,150,2013-09-23 10:31:00
5:52 AM,54.7,47.3,76,29.93,10.0,SSE,8.1,-,N/A,,Clear,150,2013-09-23 10:52:00
6:12 AM,54.1,47.3,78,29.93,10.0,SSE,6.9,-,N/A,,Clear,150,2013-09-23 11:12:00
6:31 AM,53.8,47.1,78,29.94,10.0,SSE,6.9,-,N/A,,Clear,150,2013-09-23 11:31:00
6:52 AM,53.4,46.8,78,29.95,10.0,SSE,6.9,-,N/A,,Clear,150,2013-09-23 11:52:00
7:12 AM,53.1,46.4,78,29.95,10.0,SSE,9.2,-,N/A,,Clear,150,2013-09-23 12:12:00
7:31 AM,52.9,46.4,79,29.96,10.0,SSE,6.9,-,N/A,,Clear,150,2013-09-23 12:31:00
7:52 AM,53.4,46.6,78,29.96,10.0,SE,9.2,-,N/A,,Clear,140,2013-09-23 12:52:00
8:12 AM,54.3,46.8,76,29.96,10.0,SSE,9.2,-,N/A,,Clear,150,2013-09-23 13:12:00
8:32 AM,55.8,46.6,71,29.96,10.0,SSE,12.7,20.7,N/A,,Clear,150,2013-09-23 13:32:00
8:52 AM,57.2,46.9,69,29.96,10.0,SSE,12.7,19.6,N/A,,Clear,150,2013-09-23 13:52:00
9:12 AM,57.6,47.5,69,29.96,10.0,SE,10.4,16.1,N/A,,Clear,140,2013-09-23 14:12:00
9:32 AM,57.7,47.7,69,29.96,10.0,SSE,12.7,-,N/A,,Clear,150,2013-09-23 14:32:00
9:52 AM,59.9,48.4,66,29.97,10.0,SSE,10.4,-,N/A,,Clear,150,2013-09-23 14:52:00
10:12 AM,61.2,48.9,64,29.97,10.0,SE,10.4,-,N/A,,Clear,140,2013-09-23 15:12:00
10:32 AM,63.1,49.5,61,29.97,10.0,SSE,9.2,-,N/A,,Clear,160,2013-09-23 15:32:00
10:52 AM,64.0,49.5,59,29.97,10.0,SSE,10.4,20.7,N/A,,Clear,150,2013-09-23 15:52:00
11:12 AM,65.5,49.5,56,29.96,10.0,SE,13.8,20.7,N/A,,Clear,140,2013-09-23 16:12:00
11:32 AM,67.6,50.4,54,29.96,10.0,SSE,12.7,21.9,N/A,,Clear,160,2013-09-23 16:32:00
11:52 AM,67.5,50.4,54,29.95,10.0,SSE,10.4,19.6,N/A,,Clear,150,2013-09-23 16:52:00
12:12 PM,68.0,50.4,53,29.94,10.0,SSE,16.1,-,N/A,,Clear,150,2013-09-23 17:12:00
12:32 PM,69.3,50.0,50,29.93,10.0,SSE,15.0,26.5,N/A,,Clear,160,2013-09-23 17:32:00
12:52 PM,70.5,49.8,48,29.93,10.0,SE,16.1,24.2,N/A,,Clear,140,2013-09-23 17:52:00
1:11 PM,70.5,49.6,47,29.93,10.0,SSE,18.4,24.2,N/A,,Clear,150,2013-09-23 18:11:00
1:32 PM,71.2,50.0,47,29.92,10.0,SSE,12.7,19.6,N/A,,Clear,160,2013-09-23 18:32:00
1:51 PM,71.8,50.0,46,29.92,10.0,SSE,13.8,23.0,N/A,,Clear,160,2013-09-23 18:51:00
2:12 PM,72.0,50.2,46,29.91,10.0,SSE,12.7,24.2,N/A,,Clear,160,2013-09-23 19:12:00
2:32 PM,72.5,50.2,45,29.90,10.0,SE,15.0,19.6,N/A,,Clear,140,2013-09-23 19:32:00
2:52 PM,72.9,50.0,44,29.90,10.0,SSE,13.8,20.7,N/A,,Clear,160,2013-09-23 19:52:00
3:12 PM,73.4,49.6,43,29.90,10.0,SSE,11.5,23.0,N/A,,Clear,160,2013-09-23 20:12:00
3:32 PM,73.8,49.6,43,29.89,10.0,SE,12.7,23.0,N/A,,Clear,140,2013-09-23 20:32:00
3:52 PM,73.6,48.6,41,29.89,10.0,SE,17.3,21.9,N/A,,Clear,140,2013-09-23 20:52:00
4:12 PM,74.3,49.5,41,29.88,10.0,SE,11.5,17.3,N/A,,Clear,130,2013-09-23 21:12:00
4:32 PM,73.9,48.2,40,29.88,10.0,SE,10.4,20.7,N/A,,Clear,140,2013-09-23 21:32:00
4:52 PM,73.4,48.4,41,29.88,10.0,SE,11.5,20.7,N/A,,Clear,140,2013-09-23 21:52:00
5:12 PM,73.2,48.9,42,29.88,10.0,SE,9.2,19.6,N/A,,Clear,130,2013-09-23 22:12:00
5:32 PM,72.9,47.8,41,29.88,10.0,SE,11.5,20.7,N/A,,Clear,140,2013-09-23 22:32:00
5:51 PM,72.0,48.6,43,29.89,10.0,SE,10.4,19.6,N/A,,Clear,140,2013-09-23 22:51:00
6:12 PM,71.1,49.3,46,29.89,10.0,ESE,10.4,-,N/A,,Clear,120,2013-09-23 23:12:00
6:32 PM,69.8,50.2,50,29.90,10.0,ESE,8.1,-,N/A,,Clear,120,2013-09-23 23:32:00
6:52 PM,67.8,50.5,54,29.89,10.0,SE,8.1,-,N/A,,Clear,130,2013-09-23 23:52:00
7:12 PM,66.4,50.4,56,29.89,10.0,ESE,6.9,-,N/A,,Clear,120,2013-09-24 00:12:00
7:32 PM,65.7,50.0,57,29.90,10.0,SE,6.9,-,N/A,,Clear,130,2013-09-24 00:32:00
7:52 PM,64.6,50.0,59,29.90,10.0,ESE,8.1,-,N/A,,Clear,110,2013-09-24 00:52:00
8:12 PM,63.3,50.4,63,29.91,10.0,ESE,8.1,-,N/A,,Clear,120,2013-09-24 01:12:00
8:32 PM,63.5,50.9,63,29.91,10.0,ESE,5.8,-,N/A,,Clear,120,2013-09-24 01:32:00
8:52 PM,63.5,50.9,63,29.92,10.0,ESE,9.2,-,N/A,,Clear,120,2013-09-24 01:52:00
9:12 PM,62.8,50.5,64,29.92,10.0,ESE,6.9,-,N/A,,Clear,120,2013-09-24 02:12:00
9:32 PM,62.6,50.4,64,29.93,10.0,SE,6.9,-,N/A,,Clear,130,2013-09-24 02:32:00
9:52 PM,61.7,50.4,66,29.94,10.0,SE,6.9,-,N/A,,Clear,140,2013-09-24 02:52:00
10:12 PM,61.0,50.4,68,29.94,10.0,SE,6.9,-,N/A,,Clear,130,2013-09-24 03:12:00
10:32 PM,60.3,50.2,69,29.95,10.0,SE,5.8,-,N/A,,Clear,130,2013-09-24 03:32:00
10:52 PM,59.5,50.2,71,29.94,10.0,ESE,5.8,-,N/A,,Clear,120,2013-09-24 03:52:00
11:12 PM,59.2,50.0,72,29.94,10.0,SE,5.8,-,N/A,,Clear,130,2013-09-24 04:12:00
11:32 PM,59.0,50.0,72,29.94,10.0,ESE,4.6,-,N/A,,Clear,120,2013-09-24 04:32:00
11:52 PM,59.0,49.6,71,29.94,10.0,SE,5.8,-,N/A,,Clear,130,2013-09-24 04:52:00